Time;durP1;ratioP1;P1;durP2;ratioP2;P2;SDS_P1;SDS_P2;PMS_P1;PMS_P2;Temp;Humidity;BMP_temperature;BMP_pressure;BME280_temperature;BME280_humidity;BME280_pressure;Samples;Min_cycle;Max_cycle;Signal;HPM_P1;HPM_P2
2023/12/25 00:00:26;;;;;;;6.55;1.65;;;;;;;11.91;100.00;99283.13;4902120;29;20055;-85
2023/12/25 00:02:53;;;;;;;3.33;1.35;;;;;;;11.90;100.00;99286.66;4905790;29;20087;-85
2023/12/25 00:05:21;;;;;;;6.07;1.80;;;;;;;11.67;100.00;99295.34;4892251;29;20048;-84
2023/12/25 00:07:48;;;;;;;3.75;1.05;;;;;;;11.65;100.00;99284.03;4922564;29;20055;-84
2023/12/25 00:10:15;;;;;;;3.03;1.80;;;;;;;11.67;100.00;99279.63;4902921;29;20083;-84
2023/12/25 00:12:41;;;;;;;3.22;1.20;;;;;;;11.61;100.00;99286.84;4893465;29;20056;-84
2023/12/25 00:15:10;;;;;;;2.33;1.67;;;;;;;11.66;100.00;99282.28;4893818;29;20055;-84
2023/12/25 00:17:36;;;;;;;4.85;1.77;;;;;;;11.64;100.00;99281.47;4907762;29;20067;-84
2023/12/25 00:20:06;;;;;;;5.63;1.38;;;;;;;11.65;100.00;99278.81;4907587;29;20044;-85
2023/12/25 00:22:35;;;;;;;7.32;1.10;;;;;;;11.64;100.00;99265.75;4908629;29;20126;-85
2023/12/25 00:25:20;;;;;;;5.47;1.42;;;;;;;11.72;100.00;99275.06;4904590;29;20056;-86
2023/12/25 00:27:59;;;;;;;2.78;1.27;;;;;;;11.69;100.00;99259.47;4902657;29;20044;-85
2023/12/25 00:30:35;;;;;;;7.45;1.50;;;;;;;11.79;100.00;99278.31;4920389;29;20048;-84
2023/12/25 00:33:01;;;;;;;5.18;1.42;;;;;;;11.92;100.00;99276.09;4937132;29;20078;-86
2023/12/25 00:35:42;;;;;;;3.40;1.35;;;;;;;11.93;100.00;99269.97;4924004;29;20550;-85
2023/12/25 00:38:21;;;;;;;7.40;1.95;;;;;;;11.97;100.00;99278.56;4913315;29;20058;-85
2023/12/25 00:41:07;;;;;;;2.92;1.05;;;;;;;11.96;100.00;99285.59;4911145;29;20044;-85
2023/12/25 00:43:52;;;;;;;8.02;1.40;;;;;;;11.98;100.00;99290.78;4936649;29;20040;-84
2023/12/25 00:46:36;;;;;;;3.13;1.50;;;;;;;11.91;100.00;99283.13;4926641;29;20052;-85
2023/12/25 00:49:07;;;;;;;2.40;1.48;;;;;;;11.76;100.00;99286.31;4922840;29;20052;-84
2023/12/25 00:51:48;;;;;;;;;;;;;;;11.69;100.00;99292.66;4914364;29;20051;-85
2023/12/25 00:54:31;;;;;;;2.22;0.88;;;;;;;11.55;100.00;99293.13;4919404;29;19929;-83
2023/12/25 00:57:07;;;;;;;2.75;0.95;;;;;;;11.42;100.00;99277.00;4920246;29;20052;-84
2023/12/25 00:59:41;;;;;;;2.38;0.82;;;;;;;11.38;100.00;99281.50;4941799;29;20081;-85
2023/12/25 01:02:21;;;;;;;3.38;0.70;;;;;;;11.45;100.00;99287.38;4900506;29;20048;-85
2023/12/25 01:04:58;;;;;;;2.50;0.50;;;;;;;11.49;100.00;99288.97;4912064;29;20052;-85
2023/12/25 01:07:26;;;;;;;1.08;0.90;;;;;;;11.50;100.00;99280.22;4928933;29;20079;-85
2023/12/25 01:09:57;;;;;;;2.33;1.10;;;;;;;11.56;100.00;99250.28;4928539;29;20123;-82
2023/12/25 01:12:30;;;;;;;5.13;1.15;;;;;;;11.59;100.00;99269.41;4920428;29;20051;-83
2023/12/25 01:14:57;;;;;;;5.85;1.15;;;;;;;11.63;100.00;99279.75;4919280;29;20051;-85
2023/12/25 01:17:26;;;;;;;3.63;0.93;;;;;;;11.59;100.00;99266.78;4907039;29;20055;-85
2023/12/25 01:19:56;;;;;;;2.90;0.90;;;;;;;11.63;100.00;99253.56;4923841;29;20058;-85
2023/12/25 01:22:23;;;;;;;7.63;1.60;;;;;;;11.70;100.00;99252.44;4909933;29;20043;-85
2023/12/25 01:24:50;;;;;;;4.88;1.05;;;;;;;11.72;100.00;99253.22;4924282;29;20436;-84
2023/12/25 01:27:17;;;;;;;4.00;1.00;;;;;;;11.78;100.00;99267.88;4906127;29;20052;-86
2023/12/25 01:29:44;;;;;;;2.63;0.93;;;;;;;11.77;100.00;99261.78;4897888;29;20052;-84
2023/12/25 01:32:10;;;;;;;3.30;0.90;;;;;;;11.82;100.00;99257.22;4926209;29;20040;-84
2023/12/25 01:34:37;;;;;;;3.72;0.80;;;;;;;11.84;100.00;99265.91;4907093;29;20784;-83
2023/12/25 01:37:04;;;;;;;4.47;1.13;;;;;;;11.81;100.00;99241.56;4890797;29;20056;-85
2023/12/25 01:39:31;;;;;;;2.28;1.02;;;;;;;11.86;100.00;99271.09;4909562;29;20050;-84
2023/12/25 01:41:57;;;;;;;10.23;0.93;;;;;;;11.85;100.00;99285.09;4907165;29;20051;-85
2023/12/25 01:44:24;;;;;;;3.70;0.95;;;;;;;11.86;100.00;99274.56;4908845;29;20150;-84
2023/12/25 01:46:53;;;;;;;3.67;1.58;;;;;;;11.83;100.00;99268.59;4924024;29;20056;-82
2023/12/25 01:49:20;;;;;;;3.40;1.17;;;;;;;11.89;100.00;99287.56;4908662;29;20047;-84
2023/12/25 01:51:46;;;;;;;3.85;0.93;;;;;;;11.91;100.00;99282.25;4895079;29;20472;-84
2023/12/25 01:54:17;;;;;;;1.73;1.10;;;;;;;11.91;100.00;99288.38;4898966;29;20047;-83
2023/12/25 01:56:43;;;;;;;2.05;0.75;;;;;;;11.90;100.00;99288.41;4900550;29;20056;-84
2023/12/25 01:59:10;;;;;;;3.45;1.00;;;;;;;11.91;100.00;99277.88;4920998;29;20405;-85
2023/12/25 02:01:40;;;;;;;4.25;1.05;;;;;;;11.94;100.00;99282.13;4907284;29;20086;-84
2023/12/25 02:04:13;;;;;;;2.90;0.88;;;;;;;11.99;100.00;99269.75;4911223;29;20535;-83
2023/12/25 02:06:40;;;;;;;3.28;1.40;;;;;;;11.98;100.00;99285.53;4909207;29;20587;-84
2023/12/25 02:09:10;;;;;;;2.83;0.80;;;;;;;11.92;100.00;99290.06;4910956;29;20052;-84
2023/12/25 02:11:44;;;;;;;3.10;0.95;;;;;;;11.96;100.00;99285.59;4909458;29;20150;-85
2023/12/25 02:14:14;;;;;;;2.42;0.80;;;;;;;12.01;100.00;99302.03;4911455;29;20091;-84
2023/12/25 02:16:42;;;;;;;5.65;1.30;;;;;;;12.02;100.00;99284.50;4906795;29;20422;-84
2023/12/25 02:19:30;;;;;;;2.17;0.70;;;;;;;12.04;100.00;99290.56;4920842;29;20047;-83
2023/12/25 02:21:57;;;;;;;0.52;0.43;;;;;;;12.05;100.00;99294.91;4896157;29;20164;-84
2023/12/25 02:24:30;;;;;;;3.83;1.35;;;;;;;12.10;100.00;99290.34;4907836;29;20452;-83
2023/12/25 02:26:57;;;;;;;0.57;0.43;;;;;;;12.10;100.00;99299.97;4892521;29;20068;-83
2023/12/25 02:29:24;;;;;;;3.88;0.73;;;;;;;12.08;100.00;99305.28;4912398;29;20075;-84
2023/12/25 02:31:51;;;;;;;1.45;0.57;;;;;;;12.05;100.00;99311.47;4915123;29;20713;-83
2023/12/25 02:34:18;;;;;;;3.58;0.50;;;;;;;12.00;100.00;99310.78;4895008;29;20036;-84
2023/12/25 02:36:44;;;;;;;1.20;0.43;;;;;;;11.99;100.00;99303.00;4894589;29;20055;-84
2023/12/25 02:39:11;;;;;;;2.65;0.63;;;;;;;11.97;100.00;99313.53;4889414;29;20596;-84
2023/12/25 02:41:37;;;;;;;5.43;1.30;;;;;;;11.97;100.00;99312.66;4892150;29;20531;-83
2023/12/25 02:44:07;;;;;;;4.25;0.88;;;;;;;11.91;100.00;99318.97;4909729;29;20528;-84
2023/12/25 02:46:34;;;;;;;3.03;0.80;;;;;;;11.92;100.00;99320.69;4902036;29;20040;-84
2023/12/25 02:49:03;;;;;;;3.45;0.75;;;;;;;11.92;100.00;99318.06;4905921;29;20055;-85
2023/12/25 02:51:30;;;;;;;1.38;0.63;;;;;;;11.88;100.00;99325.19;4895756;29;20147;-84
2023/12/25 02:53:56;;;;;;;3.25;0.70;;;;;;;11.86;100.00;99324.41;4902693;29;20517;-84
2023/12/25 02:56:23;;;;;;;3.22;1.02;;;;;;;11.81;100.00;99331.56;4906692;29;20063;-83
2023/12/25 02:58:49;;;;;;;2.38;0.40;;;;;;;11.81;100.00;99328.94;4900522;29;20044;-82
2023/12/25 03:01:16;;;;;;;2.83;0.47;;;;;;;11.83;100.00;99332.34;4891704;29;20056;-85
2023/12/25 03:03:43;;;;;;;3.10;0.43;;;;;;;11.85;100.00;99335.78;4909933;29;20371;-84
2023/12/25 03:06:12;;;;;;;2.22;0.57;;;;;;;11.86;100.00;99345.38;4925372;29;20056;-83
2023/12/25 03:08:39;;;;;;;6.50;0.75;;;;;;;11.81;100.00;99339.44;4891382;29;20087;-84
2023/12/25 03:11:06;;;;;;;5.22;0.88;;;;;;;11.80;100.00;99345.56;4890415;29;20062;-84
2023/12/25 03:13:32;;;;;;;2.15;0.40;;;;;;;11.77;100.00;99345.66;4916418;29;20044;-84
2023/12/25 03:15:59;;;;;;;4.47;0.82;;;;;;;11.77;100.00;99339.59;4913064;29;20540;-84
2023/12/25 03:18:26;;;;;;;1.85;0.70;;;;;;;11.75;100.00;99345.72;4920683;29;20059;-86
2023/12/25 03:20:52;;;;;;;6.03;0.90;;;;;;;11.73;100.00;99334.47;4892333;29;20569;-83
2023/12/25 03:23:19;;;;;;;3.03;0.52;;;;;;;11.75;100.00;99344.88;4894222;29;20047;-84
2023/12/25 03:25:45;;;;;;;3.92;0.77;;;;;;;11.75;100.00;99343.09;4907300;29;20147;-84
2023/12/25 03:28:12;;;;;;;4.20;0.80;;;;;;;11.78;100.00;99346.53;4906190;29;20695;-84
2023/12/25 03:30:39;;;;;;;3.95;0.63;;;;;;;11.78;100.00;99352.63;4909265;29;20566;-83
2023/12/25 03:33:08;;;;;;;1.83;0.85;;;;;;;11.81;100.00;99349.91;4907392;29;20459;-83
2023/12/25 03:35:35;;;;;;;3.20;0.75;;;;;;;11.77;100.00;99369.25;4893702;29;20056;-83
2023/12/25 03:38:02;;;;;;;4.28;0.55;;;;;;;11.73;100.00;99358.06;4897623;29;20055;-84
2023/12/25 03:40:28;;;;;;;1.40;0.68;;;;;;;11.77;100.00;99353.53;4922156;29;20119;-83
2023/12/25 03:42:55;;;;;;;2.83;0.80;;;;;;;11.70;100.00;99354.66;4891226;29;20080;-83
2023/12/25 03:45:22;;;;;;;2.78;0.55;;;;;;;11.75;100.00;99371.09;4896381;29;20052;-84
2023/12/25 03:47:48;;;;;;;3.67;1.42;;;;;;;11.69;100.00;99372.19;4911395;29;20055;-83
2023/12/25 03:50:15;;;;;;;3.65;0.73;;;;;;;11.70;100.00;99386.97;4906327;29;20047;-82
2023/12/25 03:52:41;;;;;;;1.67;0.52;;;;;;;11.72;100.00;99382.53;4908245;29;20083;-84
2023/12/25 03:55:08;;;;;;;6.75;0.82;;;;;;;11.67;100.00;99379.22;4895093;29;20056;-83
2023/12/25 03:57:35;;;;;;;4.13;0.73;;;;;;;11.69;100.00;99377.41;4925769;29;20932;-84
2023/12/25 04:00:01;;;;;;;3.75;1.17;;;;;;;11.69;100.00;99368.69;4909540;29;20044;-84
2023/12/25 04:02:28;;;;;;;4.30;0.60;;;;;;;11.71;100.00;99372.97;4909699;29;20063;-83
2023/12/25 04:04:54;;;;;;;2.95;0.40;;;;;;;11.74;100.00;99388.56;4893386;29;20563;-84
2023/12/25 04:07:21;;;;;;;2.17;0.68;;;;;;;11.70;100.00;99386.13;4892559;29;20496;-84
2023/12/25 04:09:48;;;;;;;2.25;0.60;;;;;;;11.64;100.00;99396.81;4908096;29;20059;-84
2023/12/25 04:12:14;;;;;;;0.63;0.57;;;;;;;11.64;100.00;99402.94;4893594;29;20406;-83
2023/12/25 04:14:41;;;;;;;2.97;0.73;;;;;;;11.62;100.00;99375.06;4911108;29;20131;-84
2023/12/25 04:17:07;;;;;;;3.38;0.55;;;;;;;11.58;100.00;99384.78;4904187;29;20131;-84
2023/12/25 04:19:34;;;;;;;2.90;0.60;;;;;;;11.58;100.00;99384.78;4894916;29;20059;-83
2023/12/25 04:22:01;;;;;;;4.55;0.70;;;;;;;11.54;100.00;99389.25;4906279;29;20040;-84
2023/12/25 04:24:27;;;;;;;1.02;0.47;;;;;;;11.54;100.00;99385.78;4913632;29;20401;-85
2023/12/25 04:26:57;;;;;;;2.40;0.47;;;;;;;11.49;100.00;99388.56;4909208;29;20509;-84
2023/12/25 04:29:24;;;;;;;1.17;0.85;;;;;;;11.49;100.00;99411.28;4914724;29;20039;-84
2023/12/25 04:31:51;;;;;;;4.10;0.70;;;;;;;11.45;100.00;99405.28;4901111;29;20102;-84
2023/12/25 04:34:18;;;;;;;4.18;0.65;;;;;;;11.47;100.00;99416.59;4897533;29;20091;-83
2023/12/25 04:36:44;;;;;;;2.33;0.70;;;;;;;11.44;100.00;99421.06;4909081;29;20083;-84
2023/12/25 04:39:17;;;;;;;1.20;0.45;;;;;;;11.46;100.00;99417.50;4912007;29;20054;-84
2023/12/25 04:41:44;;;;;;;1.42;0.65;;;;;;;11.48;100.00;99412.19;4911767;29;20258;-85
2023/12/25 04:44:11;;;;;;;3.97;0.73;;;;;;;11.47;100.00;99413.09;4914094;29;20043;-85
2023/12/25 04:46:39;;;;;;;1.20;0.30;;;;;;;11.49;100.00;99422.63;4894788;29;20099;-85
2023/12/25 04:49:07;;;;;;;5.78;0.70;;;;;;;11.48;100.00;99420.06;4920955;29;20131;-85
2023/12/25 04:51:33;;;;;;;1.75;0.40;;;;;;;11.50;100.00;99420.84;4929443;29;20051;-83
2023/12/25 04:54:00;;;;;;;1.20;0.55;;;;;;;11.47;100.00;99427.06;4913335;29;20051;-84
2023/12/25 04:56:27;;;;;;;3.28;0.60;;;;;;;11.50;100.00;99429.59;4897585;29;20048;-84
2023/12/25 04:58:53;;;;;;;0.93;0.35;;;;;;;11.51;100.00;99436.53;4913949;29;20658;-85
2023/12/25 05:01:30;;;;;;;0.75;0.38;;;;;;;11.53;100.00;99432.09;4909867;29;20059;-84
2023/12/25 05:03:59;;;;;;;4.22;1.75;;;;;;;11.49;100.00;99430.47;4908046;29;20532;-85
2023/12/25 05:06:26;;;;;;;1.67;0.40;;;;;;;11.38;100.00;99430.84;4895820;29;20107;-84
2023/12/25 05:08:52;;;;;;;4.45;0.88;;;;;;;11.33;100.00;99440.59;4906709;29;20051;-85
2023/12/25 05:11:19;;;;;;;3.42;1.17;;;;;;;11.24;100.00;99443.53;4896090;29;20501;-84
2023/12/25 05:13:48;;;;;;;4.43;0.80;;;;;;;11.17;100.00;99452.47;4893105;29;20111;-83
2023/12/25 05:16:17;;;;;;;1.63;0.55;;;;;;;11.06;100.00;99447.56;4908041;29;20099;-84
2023/12/25 05:18:44;;;;;;;4.60;0.80;;;;;;;11.07;100.00;99457.97;4900315;29;20521;-85
2023/12/25 05:21:13;;;;;;;4.68;1.02;;;;;;;11.05;100.00;99449.31;4914345;29;20086;-84
2023/12/25 05:23:40;;;;;;;3.85;0.82;;;;;;;11.07;100.00;99454.50;4917911;29;20043;-84
2023/12/25 05:26:06;;;;;;;2.10;0.60;;;;;;;10.96;100.00;99436.50;4917293;29;20130;-85
2023/12/25 05:28:33;;;;;;;3.03;0.50;;;;;;;11.00;100.00;99446.00;4913554;29;20111;-83
2023/12/25 05:30:59;;;;;;;4.68;0.88;;;;;;;10.99;100.00;99466.97;4930638;29;20448;-84
2023/12/25 05:33:26;;;;;;;3.63;1.75;;;;;;;10.98;100.00;99457.41;4913142;29;20067;-84
2023/12/25 05:35:53;;;;;;;2.47;0.98;;;;;;;10.92;100.00;99466.28;4901256;29;20144;-85
2023/12/25 05:38:19;;;;;;;4.10;0.80;;;;;;;10.84;100.00;99468.28;4895834;29;20067;-85
2023/12/25 05:40:46;;;;;;;3.65;0.63;;;;;;;10.74;100.00;99463.31;4916306;29;20059;-84
2023/12/25 05:43:13;;;;;;;3.22;1.10;;;;;;;10.72;100.00;99459.03;4892219;29;20441;-83
2023/12/25 05:45:39;;;;;;;2.42;0.82;;;;;;;10.68;100.00;99479.19;4917083;29;20119;-84
2023/12/25 05:48:07;;;;;;;7.22;1.33;;;;;;;10.63;100.00;99477.63;4930591;29;20107;-85
2023/12/25 05:50:36;;;;;;;1.92;0.65;;;;;;;10.54;100.00;99484.81;4915839;29;20064;-85
2023/12/25 05:53:03;;;;;;;4.72;0.85;;;;;;;10.55;100.00;99491.75;4899916;29;20706;-85
2023/12/25 05:55:29;;;;;;;4.53;0.75;;;;;;;10.50;100.00;99501.50;4893917;29;20052;-83
2023/12/25 05:57:56;;;;;;;6.32;0.80;;;;;;;10.46;100.00;99496.41;4893700;29;20062;-84
2023/12/25 06:00:22;;;;;;;5.45;0.80;;;;;;;10.44;100.00;99501.66;4901187;29;20051;-84
2023/12/25 06:02:49;;;;;;;4.95;0.98;;;;;;;10.35;100.00;99501.88;4900650;29;20224;-85
2023/12/25 06:05:15;;;;;;;3.10;1.02;;;;;;;10.39;100.00;99493.94;4909923;29;20103;-84
2023/12/25 06:07:42;;;;;;;9.43;1.23;;;;;;;10.38;100.00;99501.84;4909589;29;20856;-82
2023/12/25 06:10:09;;;;;;;2.47;1.00;;;;;;;10.36;100.00;99495.78;4914249;29;20071;-83
2023/12/25 06:12:35;;;;;;;2.28;0.88;;;;;;;10.33;100.00;99501.91;4910321;29;20056;-85
2023/12/25 06:15:05;;;;;;;2.08;0.63;;;;;;;10.32;100.00;99512.41;4916957;29;20048;-84
2023/12/25 06:17:32;;;;;;;3.50;0.80;;;;;;;10.24;100.00;99513.47;4904025;29;20052;-84
2023/12/25 06:19:59;;;;;;;3.80;0.80;;;;;;;10.23;100.00;99506.53;4930921;29;20050;-86
2023/12/25 06:22:26;;;;;;;7.18;1.30;;;;;;;10.19;100.00;99515.34;4930373;29;20047;-85
2023/12/25 06:24:52;;;;;;;2.42;1.05;;;;;;;10.15;100.00;99526.78;4916215;29;20043;-83
2023/12/25 06:27:19;;;;;;;1.83;0.82;;;;;;;10.16;100.00;99522.44;4897214;29;20051;-85
2023/12/25 06:29:46;;;;;;;3.92;0.95;;;;;;;10.15;100.00;99518.09;4894730;29;20048;-85
2023/12/25 06:32:13;;;;;;;4.40;0.90;;;;;;;10.17;100.00;99519.78;4913589;29;20133;-84
2023/12/25 06:34:42;;;;;;;2.22;1.30;;;;;;;10.18;100.00;99528.47;4916619;29;20067;-84
2023/12/25 06:37:09;;;;;;;4.25;0.85;;;;;;;10.22;100.00;99528.34;4911476;29;20043;-85
2023/12/25 06:39:36;;;;;;;6.18;1.65;;;;;;;10.25;100.00;99520.41;4932000;29;20051;-84
2023/12/25 06:42:02;;;;;;;5.07;1.52;;;;;;;10.24;100.00;99518.69;4910717;29;20048;-86
2023/12/25 06:44:29;;;;;;;1.40;1.00;;;;;;;10.17;100.00;99514.53;4911542;29;20126;-84
2023/12/25 06:46:55;;;;;;;8.73;1.30;;;;;;;10.17;100.00;99516.28;4916566;29;20496;-85
2023/12/25 06:49:22;;;;;;;3.38;1.25;;;;;;;10.18;100.00;99534.56;4906893;29;20055;-85
2023/12/25 06:51:49;;;;;;;3.10;1.45;;;;;;;10.17;100.00;99526.72;4899942;29;20131;-84
2023/12/25 06:54:16;;;;;;;3.80;1.00;;;;;;;10.19;100.00;99545.88;4913092;29;20067;-84
2023/12/25 06:56:44;;;;;;;2.40;1.13;;;;;;;10.23;100.00;99527.47;4914313;29;20052;-85
2023/12/25 06:59:10;;;;;;;4.53;1.17;;;;;;;10.21;100.00;99539.72;4908084;29;20042;-84
2023/12/25 07:01:45;;;;;;;9.10;2.33;;;;;;;10.30;100.00;99558.66;4899689;29;20055;-84
2023/12/25 07:04:12;;;;;;;4.50;1.02;;;;;;;10.33;100.00;99561.22;4908833;29;20071;-84
2023/12/25 07:06:40;;;;;;;4.18;0.80;;;;;;;10.28;100.00;99561.34;4894049;29;20412;-85
2023/12/25 07:09:13;;;;;;;5.65;1.00;;;;;;;10.30;100.00;99563.91;4911489;29;20450;-84
2023/12/25 07:11:40;;;;;;;3.10;0.85;;;;;;;10.33;100.00;99569.94;4912286;29;20881;-84
2023/12/25 07:14:07;;;;;;;4.50;1.15;;;;;;;10.32;100.00;99573.44;4895047;29;20473;-86
2023/12/25 07:16:34;;;;;;;3.13;0.70;;;;;;;10.35;100.00;99572.50;4893711;29;20100;-84
2023/12/25 07:19:01;;;;;;;4.43;0.77;;;;;;;10.35;100.00;99591.72;4899188;29;20047;-84
2023/12/25 07:21:27;;;;;;;2.78;0.60;;;;;;;10.36;100.00;99590.78;4919407;29;20043;-83
2023/12/25 07:23:56;;;;;;;3.25;1.10;;;;;;;10.41;100.00;99595.94;4883330;29;20044;-84
2023/12/25 07:26:23;;;;;;;1.33;0.65;;;;;;;10.40;100.00;99596.81;4908419;29;20315;-83
2023/12/25 07:28:50;;;;;;;2.90;1.05;;;;;;;10.40;100.00;99599.44;4892138;29;20098;-84
2023/12/25 07:31:17;;;;;;;6.85;1.15;;;;;;;10.41;100.00;99602.00;4913061;29;20043;-84
2023/12/25 07:33:43;;;;;;;3.13;0.80;;;;;;;10.33;100.00;99619.63;4893591;29;20048;-83
2023/12/25 07:36:10;;;;;;;3.80;0.93;;;;;;;10.28;100.00;99616.25;4893021;29;20044;-83
2023/12/25 07:38:39;;;;;;;8.48;1.35;;;;;;;10.15;100.00;99617.47;4892559;29;20067;-83
2023/12/25 07:41:13;;;;;;;3.90;0.90;;;;;;;9.99;100.00;99609.97;4905332;29;20086;-85
2023/12/25 07:43:39;;;;;;;3.28;0.93;;;;;;;9.93;100.00;99581.34;4889148;29;20054;-84
2023/12/25 07:46:08;;;;;;;4.25;0.93;;;;;;;9.92;100.00;99597.94;4886575;29;20091;-84
2023/12/25 07:48:36;;;;;;;4.90;1.20;;;;;;;9.87;100.00;99605.03;4908178;29;20047;-83
2023/12/25 07:51:03;;;;;;;5.30;1.02;;;;;;;9.91;100.00;99612.78;4881499;29;20051;-86
2023/12/25 07:53:29;;;;;;;9.35;1.15;;;;;;;9.96;100.00;99625.75;4894756;29;20055;-85
2023/12/25 07:55:57;;;;;;;6.88;1.10;;;;;;;9.97;100.00;99621.38;4896385;29;20056;-85
2023/12/25 07:58:24;;;;;;;2.92;0.80;;;;;;;10.00;100.00;99634.34;4912110;29;20067;-85
2023/12/25 08:00:54;;;;;;;2.40;0.82;;;;;;;10.04;100.00;99638.66;4912133;29;20050;-83
2023/12/25 08:03:23;;;;;;;7.78;1.27;;;;;;;10.03;100.00;99653.44;4905048;29;20500;-85
2023/12/25 08:05:56;;;;;;;2.90;0.65;;;;;;;10.06;100.00;99640.34;4904294;29;20039;-85
2023/12/25 08:08:24;;;;;;;1.85;0.70;;;;;;;10.08;100.00;99635.91;4894634;29;20512;-85
2023/12/25 08:10:57;;;;;;;1.17;0.80;;;;;;;10.10;100.00;99644.59;4898535;29;20431;-84
2023/12/25 08:13:26;;;;;;;1.75;0.60;;;;;;;10.06;100.00;99658.63;4895007;29;20048;-84
2023/12/25 08:15:53;;;;;;;1.75;0.60;;;;;;;10.06;100.00;99656.03;4915007;29;20052;-85
2023/12/25 08:18:25;;;;;;;0.75;0.60;;;;;;;10.08;100.00;99671.66;4914018;29;20058;-84
2023/12/25 08:20:52;;;;;;;1.95;0.65;;;;;;;10.05;100.00;99676.94;4911342;29;20143;-84
2023/12/25 08:23:19;;;;;;;4.90;0.82;;;;;;;10.07;100.00;99686.47;4925011;29;20054;-83
2023/12/25 08:25:45;;;;;;;4.57;0.70;;;;;;;10.06;100.00;99671.72;4911837;29;20047;-83
2023/12/25 08:28:13;;;;;;;1.67;0.80;;;;;;;10.07;100.00;99659.47;4925444;29;20416;-83
2023/12/25 08:30:39;;;;;;;2.83;1.00;;;;;;;10.10;100.00;99662.00;4930124;29;20051;-85
2023/12/25 08:33:06;;;;;;;4.10;1.35;;;;;;;10.09;100.00;99660.31;4898294;29;20060;-84
2023/12/25 08:35:35;;;;;;;3.92;1.67;;;;;;;10.05;100.00;99651.69;4911523;29;20076;-84
2023/12/25 08:38:04;;;;;;;7.93;1.95;;;;;;;10.08;100.00;99661.22;4905893;29;20137;-85
2023/12/25 08:40:31;;;;;;;6.47;1.75;;;;;;;10.16;100.00;99672.34;4895172;29;20736;-83
2023/12/25 08:42:58;;;;;;;6.10;0.98;;;;;;;10.20;100.00;99660.06;4928923;29;20086;-85
2023/12/25 08:45:30;;;;;;;8.27;2.03;;;;;;;10.30;100.00;99664.19;4910605;29;20139;-83
2023/12/25 08:47:56;;;;;;;5.43;1.10;;;;;;;10.32;100.00;99678.06;4907087;29;20052;-83
2023/12/25 08:50:26;;;;;;;1.83;1.13;;;;;;;10.32;100.00;99685.91;4911816;29;20048;-84
2023/12/25 08:52:53;;;;;;;6.57;1.33;;;;;;;10.36;100.00;99686.75;4916135;29;20198;-85
2023/12/25 08:55:20;;;;;;;4.32;1.33;;;;;;;10.41;100.00;99695.34;4925367;29;20050;-84
2023/12/25 08:57:49;;;;;;;9.30;1.45;;;;;;;10.47;100.00;99700.44;4894796;29;20139;-85
2023/12/25 09:00:16;;;;;;;5.95;1.77;;;;;;;10.46;100.00;99696.09;4913715;29;20091;-84
2023/12/25 09:02:44;;;;;;;2.60;1.10;;;;;;;10.53;100.00;99699.41;4907422;29;20115;-83
2023/12/25 09:05:11;;;;;;;7.45;1.15;;;;;;;10.60;100.00;99706.25;4918247;29;20040;-84
2023/12/25 09:07:38;;;;;;;6.93;1.50;;;;;;;10.54;100.00;99704.59;4924325;29;20114;-84
2023/12/25 09:10:06;;;;;;;4.43;0.98;;;;;;;10.54;100.00;99715.06;4918151;29;20111;-85
2023/12/25 09:12:35;;;;;;;7.53;1.40;;;;;;;10.48;100.00;99725.72;4905308;29;20044;-81
2023/12/25 09:15:04;;;;;;;3.90;1.13;;;;;;;10.50;100.00;99715.22;4895442;29;20100;-82
2023/12/25 09:17:31;;;;;;;3.88;1.15;;;;;;;10.54;100.00;99709.00;4901460;29;20142;-82
2023/12/25 09:19:58;;;;;;;4.35;1.10;;;;;;;10.60;100.00;99711.47;4916295;29;20056;-83
2023/12/25 09:22:28;;;;;;;9.73;1.40;;;;;;;10.71;100.00;99716.44;4898861;29;20048;-81
2023/12/25 09:24:55;;;;;;;5.22;1.05;;;;;;;10.68;100.00;99719.13;4914062;29;20083;-82
2023/12/25 09:27:21;;;;;;;4.15;0.82;;;;;;;10.71;100.00;99717.28;4931026;29;20090;-83
2023/12/25 09:29:50;;;;;;;2.75;1.15;;;;;;;10.78;100.00;99720.63;4895536;29;20048;-82
2023/12/25 09:32:17;;;;;;;4.85;1.23;;;;;;;10.77;100.00;99724.16;4901626;29;20111;-83
2023/12/25 09:34:44;;;;;;;4.72;0.90;;;;;;;10.76;100.00;99727.66;4929739;29;20035;-83
2023/12/25 09:37:11;;;;;;;6.97;1.17;;;;;;;10.80;100.00;99718.81;4910996;29;20161;-81
2023/12/25 09:39:39;;;;;;;4.18;1.25;;;;;;;10.75;100.00;99734.66;4910667;29;20066;-85
2023/12/25 09:42:08;;;;;;;4.68;1.23;;;;;;;10.85;100.00;99731.81;4900212;29;20043;-81
2023/12/25 09:44:40;;;;;;;6.45;0.98;;;;;;;10.88;100.00;99742.19;4914973;29;20054;-84
2023/12/25 09:47:08;;;;;;;2.42;0.93;;;;;;;10.90;100.00;99736.03;4910127;29;20452;-81
2023/12/25 09:49:39;;;;;;;2.05;0.70;;;;;;;10.92;100.00;99742.09;4916057;29;20043;-83
2023/12/25 09:52:06;;;;;;;6.40;2.38;;;;;;;10.93;100.00;99728.09;4915690;29;20052;-82
2023/12/25 09:54:33;;;;;;;4.28;1.40;;;;;;;10.97;100.00;99735.88;4912277;29;20056;-83
2023/12/25 09:57:02;;;;;;;3.00;0.70;;;;;;;10.99;100.00;99740.19;4898566;29;20051;-82
2023/12/25 09:59:30;;;;;;;3.17;2.17;;;;;;;11.02;100.00;99745.31;4927725;29;20115;-83
2023/12/25 10:02:01;;;;;;;4.15;0.80;;;;;;;11.03;100.00;99733.97;4900031;29;20063;-83
2023/12/25 10:04:33;;;;;;;5.82;1.33;;;;;;;11.04;100.00;99743.53;4909364;29;20059;-83
2023/12/25 10:07:02;;;;;;;1.20;1.10;;;;;;;11.08;100.00;99749.53;4908624;29;20392;-84
2023/12/25 10:09:30;;;;;;;1.85;0.57;;;;;;;11.18;100.00;99758.88;4903844;29;20079;-82
2023/12/25 10:11:57;;;;;;;5.95;1.25;;;;;;;11.27;100.00;99756.94;4916534;29;20114;-82
2023/12/25 10:14:28;;;;;;;4.25;1.63;;;;;;;11.36;100.00;99756.69;4893369;29;20059;-83
2023/12/25 10:16:57;;;;;;;4.78;1.10;;;;;;;11.34;100.00;99750.63;4913863;29;20418;-82
2023/12/25 10:19:25;;;;;;;7.53;1.20;;;;;;;11.35;100.00;99757.59;4912593;29;20052;-83
2023/12/25 10:21:53;;;;;;;6.13;1.15;;;;;;;11.36;100.00;99749.69;4896086;29;20047;-83
2023/12/25 10:24:27;;;;;;;4.05;1.15;;;;;;;11.35;100.00;99760.22;4914140;29;20052;-82
2023/12/25 10:27:02;;;;;;;4.60;1.33;;;;;;;11.39;100.00;99761.84;4893333;29;20052;-84
2023/12/25 10:29:37;;;;;;;3.97;1.45;;;;;;;11.44;100.00;99752.09;4903411;29;20078;-84
2023/12/25 10:32:20;;;;;;;6.38;1.65;;;;;;;11.39;100.00;99751.38;4912300;29;20465;-83
2023/12/25 10:34:47;;;;;;;6.40;1.92;;;;;;;11.33;100.00;99749.78;4900567;29;20139;-83
2023/12/25 10:37:15;;;;;;;3.65;1.02;;;;;;;11.37;100.00;99746.16;4894510;29;20570;-82
2023/12/25 10:39:41;;;;;;;4.72;0.98;;;;;;;11.37;100.00;99756.66;4894235;29;20082;-83
2023/12/25 10:42:12;;;;;;;4.18;1.15;;;;;;;11.32;100.00;99742.81;4913420;29;20107;-83
2023/12/25 10:44:39;;;;;;;3.78;1.05;;;;;;;11.36;100.00;99746.22;4916408;29;20052;-82
2023/12/25 10:47:10;;;;;;;3.60;1.02;;;;;;;11.31;100.00;99743.72;4910349;29;20102;-83
2023/12/25 10:49:38;;;;;;;4.80;1.00;;;;;;;11.25;100.00;99734.25;4897825;29;20649;-81
2023/12/25 10:52:07;;;;;;;1.73;0.77;;;;;;;11.28;100.00;99743.78;4887160;29;20048;-82
2023/12/25 10:54:34;;;;;;;5.43;1.05;;;;;;;11.29;100.00;99748.16;4914912;29;20058;-83
2023/12/25 10:57:03;;;;;;;3.47;0.75;;;;;;;11.42;100.00;99739.03;4896760;29;20047;-81
2023/12/25 10:59:34;;;;;;;2.22;0.80;;;;;;;11.47;100.00;99748.53;4897679;29;20128;-82
2023/12/25 11:02:05;;;;;;;2.25;1.17;;;;;;;11.56;100.00;99733.44;4909126;29;20048;-81
2023/12/25 11:04:32;;;;;;;5.45;1.48;;;;;;;11.68;100.00;99736.59;4894153;29;20052;-83
2023/12/25 11:07:03;;;;;;;4.50;0.93;;;;;;;11.58;100.00;99723.75;4900402;29;20047;-85
2023/12/25 11:09:33;;;;;;;2.33;0.80;;;;;;;11.54;100.00;99721.28;4904541;29;20058;-83
2023/12/25 11:12:00;;;;;;;3.35;0.70;;;;;;;11.50;100.00;99724.84;4907663;29;20054;-83
2023/12/25 11:14:32;;;;;;;5.45;2.10;;;;;;;11.55;100.00;99720.34;4893448;29;20063;-82
2023/12/25 11:16:59;;;;;;;2.78;0.73;;;;;;;11.65;100.00;99734.91;4911739;29;20054;-84
2023/12/25 11:19:26;;;;;;;2.20;0.75;;;;;;;11.89;100.00;99749.09;4914518;29;20591;-81
2023/12/25 11:21:53;;;;;;;2.50;0.98;;;;;;;11.91;100.00;99752.56;4918899;29;20594;-83
2023/12/25 11:24:20;;;;;;;3.25;1.13;;;;;;;11.93;100.00;99747.25;4911676;29;20054;-80
2023/12/25 11:26:47;;;;;;;3.67;0.45;;;;;;;12.07;100.00;99755.59;4912565;29;20123;-82
2023/12/25 11:29:13;;;;;;;1.65;0.70;;;;;;;12.00;100.00;99761.94;4925406;29;20101;-81
2023/12/25 11:31:49;;;;;;;2.97;0.80;;;;;;;12.01;100.00;99745.28;4902825;29;20147;-82